sensor_id;sensor_type;location;lat;lon;timestamp;temperature;humidity
33247;DHT22;19606;50.108;19.804;2022-10-19T06:13:39;10.80;99.90
33247;DHT22;19606;50.108;19.804;2022-10-19T06:16:07;10.90;99.90
33247;DHT22;19606;50.108;19.804;2022-10-19T06:18:33;11.10;99.90
33247;DHT22;19606;50.108;19.804;2022-10-19T06:21:02;11.20;99.90
33247;DHT22;19606;50.108;19.804;2022-10-19T06:47:53;13.90;99.90
33247;DHT22;19606;50.108;19.804;2022-10-19T06:50:19;14.30;21.60
33247;DHT22;19606;50.108;19.804;2022-10-19T06:52:45;14.10;99.90
33247;DHT22;19606;50.108;19.804;2022-10-19T06:55:11;14.40;63.60
33247;DHT22;19606;50.108;19.804;2022-10-19T06:57:37;14.40;21.00
33247;DHT22;19606;50.108;19.804;2022-10-19T07:00:04;13.50;99.90
33247;DHT22;19606;50.108;19.804;2022-10-19T07:02:31;13.00;99.90
33247;DHT22;19606;50.108;19.804;2022-10-19T07:04:57;12.60;99.90
33247;DHT22;19606;50.108;19.804;2022-10-19T07:07:24;12.60;99.90
33247;DHT22;19606;50.108;19.804;2022-10-19T07:09:49;12.40;99.90
33247;DHT22;19606;50.108;19.804;2022-10-19T07:12:15;12.40;99.90
33247;DHT22;19606;50.108;19.804;2022-10-19T07:14:40;12.30;99.90
33247;DHT22;19606;50.108;19.804;2022-10-19T07:26:51;11.80;99.90
33247;DHT22;19606;50.108;19.804;2022-10-19T07:29:17;11.80;99.90
33247;DHT22;19606;50.108;19.804;2022-10-19T07:31:42;11.70;99.90
33247;DHT22;19606;50.108;19.804;2022-10-19T07:34:13;11.70;99.90
33247;DHT22;19606;50.108;19.804;2022-10-19T07:36:39;11.70;99.90
33247;DHT22;19606;50.108;19.804;2022-10-19T07:39:09;11.70;99.90
33247;DHT22;19606;50.108;19.804;2022-10-19T07:41:35;11.70;99.90
33247;DHT22;19606;50.108;19.804;2022-10-19T07:44:01;11.70;99.90
33247;DHT22;19606;50.108;19.804;2022-10-19T07:46:28;11.70;99.90
33247;DHT22;19606;50.108;19.804;2022-10-19T07:48:58;11.90;99.90
33247;DHT22;19606;50.108;19.804;2022-10-19T07:51:24;11.90;99.90
33247;DHT22;19606;50.108;19.804;2022-10-19T07:53:50;12.00;99.90
33247;DHT22;19606;50.108;19.804;2022-10-19T07:56:18;11.90;99.90
33247;DHT22;19606;50.108;19.804;2022-10-19T07:58:44;12.00;99.90
33247;DHT22;19606;50.108;19.804;2022-10-19T08:01:13;12.00;99.90
33247;DHT22;19606;50.108;19.804;2022-10-19T08:03:39;12.10;99.90
33247;DHT22;19606;50.108;19.804;2022-10-19T08:06:08;12.10;99.90
33247;DHT22;19606;50.108;19.804;2022-10-19T08:08:35;12.50;99.90
33247;DHT22;19606;50.108;19.804;2022-10-19T08:11:25;12.50;99.90
33247;DHT22;19606;50.108;19.804;2022-10-19T08:13:51;12.40;99.90
33247;DHT22;19606;50.108;19.804;2022-10-19T08:16:29;12.40;99.90
33247;DHT22;19606;50.108;19.804;2022-10-19T08:19:02;12.30;99.90
33247;DHT22;19606;50.108;19.804;2022-10-19T08:21:29;12.30;99.90
33247;DHT22;19606;50.108;19.804;2022-10-19T08:23:56;12.40;99.90
33247;DHT22;19606;50.108;19.804;2022-10-19T08:26:23;12.50;99.90
33247;DHT22;19606;50.108;19.804;2022-10-19T08:28:48;12.50;99.90
33247;DHT22;19606;50.108;19.804;2022-10-19T08:31:17;12.50;99.90
33247;DHT22;19606;50.108;19.804;2022-10-19T08:33:44;12.50;99.90
33247;DHT22;19606;50.108;19.804;2022-10-19T08:36:11;12.70;99.90
33247;DHT22;19606;50.108;19.804;2022-10-19T08:38:37;12.90;99.90
33247;DHT22;19606;50.108;19.804;2022-10-19T08:41:22;12.90;94.20
33247;DHT22;19606;50.108;19.804;2022-10-19T08:44:11;13.70;18.60
33247;DHT22;19606;50.108;19.804;2022-10-19T08:46:49;13.30;11.00
33247;DHT22;19606;50.108;19.804;2022-10-19T08:51:53;12.50;7.40
33247;DHT22;19606;50.108;19.804;2022-10-19T08:54:21;12.40;43.20
33247;DHT22;19606;50.108;19.804;2022-10-19T09:05:51;11.90;1.00
33247;DHT22;19606;50.108;19.804;2022-10-19T09:08:14;11.90;1.00
33247;DHT22;19606;50.108;19.804;2022-10-19T09:10:42;11.90;1.00
33247;DHT22;19606;50.108;19.804;2022-10-19T09:15:56;12.10;99.90
33247;DHT22;19606;50.108;19.804;2022-10-19T09:18:25;12.20;99.90
33247;DHT22;19606;50.108;19.804;2022-10-19T09:21:18;12.10;99.90
33247;DHT22;19606;50.108;19.804;2022-10-19T09:26:22;12.20;4.90
33247;DHT22;19606;50.108;19.804;2022-10-19T09:29:07;12.40;99.90
33247;DHT22;19606;50.108;19.804;2022-10-19T09:31:40;12.40;1.00
33247;DHT22;19606;50.108;19.804;2022-10-19T09:36:49;12.50;99.90
33247;DHT22;19606;50.108;19.804;2022-10-19T09:39:17;12.60;99.90
33247;DHT22;19606;50.108;19.804;2022-10-19T09:41:46;12.60;99.90
33247;DHT22;19606;50.108;19.804;2022-10-19T09:44:15;13.10;99.90
33247;DHT22;19606;50.108;19.804;2022-10-19T09:49:18;13.30;1.00
33247;DHT22;19606;50.108;19.804;2022-10-19T09:52:02;15.00;15.60
33247;DHT22;19606;50.108;19.804;2022-10-19T09:54:36;17.40;99.90
33247;DHT22;19606;50.108;19.804;2022-10-19T09:57:03;17.90;1.00
33247;DHT22;19606;50.108;19.804;2022-10-19T09:59:33;18.70;99.90
33247;DHT22;19606;50.108;19.804;2022-10-19T10:04:39;15.30;1.00
33247;DHT22;19606;50.108;19.804;2022-10-19T10:07:14;14.50;99.90
33247;DHT22;19606;50.108;19.804;2022-10-19T10:09:42;14.40;1.00
33247;DHT22;19606;50.108;19.804;2022-10-19T10:12:09;13.80;99.90
33247;DHT22;19606;50.108;19.804;2022-10-19T10:14:39;13.60;99.90
33247;DHT22;19606;50.108;19.804;2022-10-19T10:17:18;13.50;21.50
33247;DHT22;19606;50.108;19.804;2022-10-19T10:19:51;13.30;1.00
33247;DHT22;19606;50.108;19.804;2022-10-19T10:22:26;13.50;1.00
33247;DHT22;19606;50.108;19.804;2022-10-19T10:24:54;13.10;1.00
33247;DHT22;19606;50.108;19.804;2022-10-19T10:27:35;13.00;1.00
33247;DHT22;19606;50.108;19.804;2022-10-19T10:30:07;13.10;99.90
33247;DHT22;19606;50.108;19.804;2022-10-19T10:32:44;13.20;76.10
33247;DHT22;19606;50.108;19.804;2022-10-19T10:35:28;13.10;1.00
33247;DHT22;19606;50.108;19.804;2022-10-19T10:38:06;13.40;1.00
33247;DHT22;19606;50.108;19.804;2022-10-19T10:40:32;13.10;47.90
33247;DHT22;19606;50.108;19.804;2022-10-19T10:43:05;12.90;1.00
33247;DHT22;19606;50.108;19.804;2022-10-19T10:45:36;13.00;1.00
33247;DHT22;19606;50.108;19.804;2022-10-19T10:48:28;13.00;1.00
33247;DHT22;19606;50.108;19.804;2022-10-19T10:50:56;13.30;99.90
33247;DHT22;19606;50.108;19.804;2022-10-19T10:53:41;13.50;99.90
33247;DHT22;19606;50.108;19.804;2022-10-19T10:56:24;13.50;99.90
33247;DHT22;19606;50.108;19.804;2022-10-19T10:58:56;13.60;99.90
33247;DHT22;19606;50.108;19.804;2022-10-19T11:01:29;13.60;1.00
33247;DHT22;19606;50.108;19.804;2022-10-19T11:04:02;13.40;99.90
33247;DHT22;19606;50.108;19.804;2022-10-19T11:06:32;13.10;99.90
33247;DHT22;19606;50.108;19.804;2022-10-19T11:09:09;12.80;1.00
33247;DHT22;19606;50.108;19.804;2022-10-19T11:11:44;12.60;99.90
33247;DHT22;19606;50.108;19.804;2022-10-19T11:16:50;12.60;1.00
33247;DHT22;19606;50.108;19.804;2022-10-19T11:27:36;12.60;1.00
33247;DHT22;19606;50.108;19.804;2022-10-19T11:30:18;12.40;1.00
33247;DHT22;19606;50.108;19.804;2022-10-19T11:33:06;12.30;99.90
33247;DHT22;19606;50.108;19.804;2022-10-19T11:35:56;12.20;99.90
33247;DHT22;19606;50.108;19.804;2022-10-19T11:41:27;12.30;99.90
33247;DHT22;19606;50.108;19.804;2022-10-19T11:46:45;12.20;99.90
33247;DHT22;19606;50.108;19.804;2022-10-19T11:56:58;12.90;1.00
33247;DHT22;19606;50.108;19.804;2022-10-19T12:05:26;13.70;99.90
33247;DHT22;19606;50.108;19.804;2022-10-19T12:10:37;13.10;1.00
33247;DHT22;19606;50.108;19.804;2022-10-19T12:13:09;12.60;1.00
33247;DHT22;19606;50.108;19.804;2022-10-19T12:15:46;12.40;99.90
33247;DHT22;19606;50.108;19.804;2022-10-19T12:20:50;12.50;1.00
33247;DHT22;19606;50.108;19.804;2022-10-19T12:25:47;12.60;99.90
33247;DHT22;19606;50.108;19.804;2022-10-19T12:28:21;12.50;1.00
33247;DHT22;19606;50.108;19.804;2022-10-19T12:30:49;12.30;99.90
33247;DHT22;19606;50.108;19.804;2022-10-19T12:33:27;12.40;1.00
33247;DHT22;19606;50.108;19.804;2022-10-19T12:41:42;12.30;99.90
33247;DHT22;19606;50.108;19.804;2022-10-19T12:46:50;12.10;1.00
33247;DHT22;19606;50.108;19.804;2022-10-19T12:51:56;12.10;1.00
33247;DHT22;19606;50.108;19.804;2022-10-19T12:54:31;12.00;99.90
33247;DHT22;19606;50.108;19.804;2022-10-19T12:56:59;12.20;99.90
33247;DHT22;19606;50.108;19.804;2022-10-19T12:59:34;12.30;99.90
33247;DHT22;19606;50.108;19.804;2022-10-19T13:02:03;12.40;11.80
33247;DHT22;19606;50.108;19.804;2022-10-19T13:04:32;12.50;1.00
33247;DHT22;19606;50.108;19.804;2022-10-19T13:07:04;12.20;1.00
33247;DHT22;19606;50.108;19.804;2022-10-19T13:09:38;12.10;96.80
33247;DHT22;19606;50.108;19.804;2022-10-19T13:37:15;11.70;99.90
33247;DHT22;19606;50.108;19.804;2022-10-19T13:39:42;11.80;1.00
33247;DHT22;19606;50.108;19.804;2022-10-19T13:42:25;11.90;1.00
33247;DHT22;19606;50.108;19.804;2022-10-19T13:44:52;12.00;99.90
33247;DHT22;19606;50.108;19.804;2022-10-19T13:47:35;11.80;99.90
33247;DHT22;19606;50.108;19.804;2022-10-19T14:01:46;11.70;99.90
33247;DHT22;19606;50.108;19.804;2022-10-19T14:04:40;11.60;1.00
33247;DHT22;19606;50.108;19.804;2022-10-19T14:07:25;11.60;1.00
33247;DHT22;19606;50.108;19.804;2022-10-19T14:10:18;11.40;99.90
33247;DHT22;19606;50.108;19.804;2022-10-19T17:12:16;9.90;1.00
33247;DHT22;19606;50.108;19.804;2022-10-19T17:14:41;9.80;1.00
33247;DHT22;19606;50.108;19.804;2022-10-19T17:19:35;10.00;1.00
33247;DHT22;19606;50.108;19.804;2022-10-19T17:26:56;9.80;99.90
33247;DHT22;19606;50.108;19.804;2022-10-19T17:31:48;9.80;99.90
33247;DHT22;19606;50.108;19.804;2022-10-19T17:44:05;9.40;99.90
33247;DHT22;19606;50.108;19.804;2022-10-19T18:03:39;9.20;99.90
33247;DHT22;19606;50.108;19.804;2022-10-19T18:21:27;8.90;99.90
33247;DHT22;19606;50.108;19.804;2022-10-19T18:23:54;8.80;99.90
33247;DHT22;19606;50.108;19.804;2022-10-19T18:26:22;8.90;99.90
33247;DHT22;19606;50.108;19.804;2022-10-19T18:28:50;8.90;99.90
33247;DHT22;19606;50.108;19.804;2022-10-19T18:31:22;9.00;99.90
33247;DHT22;19606;50.108;19.804;2022-10-19T18:33:54;8.80;99.90
33247;DHT22;19606;50.108;19.804;2022-10-19T18:36:22;8.70;99.90
33247;DHT22;19606;50.108;19.804;2022-10-19T18:38:52;8.70;99.90
33247;DHT22;19606;50.108;19.804;2022-10-19T18:41:18;8.70;99.90
33247;DHT22;19606;50.108;19.804;2022-10-19T18:43:51;8.60;99.90
33247;DHT22;19606;50.108;19.804;2022-10-19T18:46:18;8.50;99.90
33247;DHT22;19606;50.108;19.804;2022-10-19T18:48:45;8.50;99.90
33247;DHT22;19606;50.108;19.804;2022-10-19T18:51:11;8.50;99.90
33247;DHT22;19606;50.108;19.804;2022-10-19T18:53:38;8.40;99.90
33247;DHT22;19606;50.108;19.804;2022-10-19T18:56:06;8.50;99.90
33247;DHT22;19606;50.108;19.804;2022-10-19T18:58:32;8.40;99.90
33247;DHT22;19606;50.108;19.804;2022-10-19T19:01:13;8.30;99.90
33247;DHT22;19606;50.108;19.804;2022-10-19T19:03:41;8.20;99.90
33247;DHT22;19606;50.108;19.804;2022-10-19T19:06:42;8.10;99.90
33247;DHT22;19606;50.108;19.804;2022-10-19T19:09:05;8.20;99.90
33247;DHT22;19606;50.108;19.804;2022-10-19T19:11:32;8.10;99.90
33247;DHT22;19606;50.108;19.804;2022-10-19T19:14:00;8.00;99.90
33247;DHT22;19606;50.108;19.804;2022-10-19T19:16:27;7.90;99.90
33247;DHT22;19606;50.108;19.804;2022-10-19T19:28:41;7.90;99.90
